Time;durP1;ratioP1;P1;durP2;ratioP2;P2;SDS_P1;SDS_P2;PMS_P1;PMS_P2;Temp;Humidity;BMP_temperature;BMP_pressure;BME280_temperature;BME280_humidity;BME280_pressure;Samples;Min_cycle;Max_cycle;Signal;HPM_P1;HPM_P2
2022/08/09 00:02:18;;;;;;;4.03;1.50;;;;;;;19.52;47.43;98620.41;5073457;28;20234;-70
2022/08/09 00:04:44;;;;;;;4.57;1.90;;;;;;;19.67;46.58;98619.63;5073685;28;20224;-71
2022/08/09 00:07:11;;;;;;;6.63;1.90;;;;;;;19.52;46.95;98624.97;5073704;28;20239;-71
2022/08/09 00:09:37;;;;;;;4.10;1.53;;;;;;;19.44;47.26;98622.75;5073544;28;20221;-70
2022/08/09 00:12:04;;;;;;;4.27;1.60;;;;;;;19.38;47.56;98624.63;5073643;28;20208;-71
2022/08/09 00:14:31;;;;;;;3.50;1.63;;;;;;;19.48;47.16;98623.06;5073303;28;20212;-71
2022/08/09 00:16:57;;;;;;;3.17;1.67;;;;;;;19.58;46.73;98623.09;5073602;28;20204;-70
2022/08/09 00:19:24;;;;;;;4.10;1.60;;;;;;;19.54;47.26;98628.22;5073213;28;20220;-70
2022/08/09 00:21:50;;;;;;;4.40;1.33;;;;;;;19.51;46.73;98628.75;5073645;28;20204;-70
2022/08/09 00:24:17;;;;;;;1.33;1.23;;;;;;;19.63;46.16;98625.81;5073155;28;20307;-71
2022/08/09 00:26:45;;;;;;;1.80;1.20;;;;;;;19.58;46.31;98619.34;5073521;28;20227;-70
2022/08/09 00:29:12;;;;;;;2.87;1.20;;;;;;;19.59;46.36;98628.25;5073094;28;20290;-71
2022/08/09 00:31:38;;;;;;;2.00;1.13;;;;;;;19.63;46.46;98623.13;5073358;28;20234;-70
2022/08/09 00:34:05;;;;;;;2.60;1.17;;;;;;;19.46;46.71;98621.41;5073446;28;20200;-71
2022/08/09 00:36:31;;;;;;;2.03;1.30;;;;;;;19.36;46.74;98620.56;5073435;28;20208;-70
2022/08/09 00:38:58;;;;;;;2.10;1.43;;;;;;;19.40;46.66;98617.09;5073039;28;20220;-70
2022/08/09 00:41:26;;;;;;;1.87;1.50;;;;;;;19.36;47.11;98629.47;5073318;28;20204;-71
2022/08/09 00:43:52;;;;;;;1.23;1.20;;;;;;;19.48;47.07;98623.06;5072968;28;20778;-71
2022/08/09 00:46:19;;;;;;;2.93;1.40;;;;;;;19.34;47.86;98618.13;5073479;28;20208;-70
2022/08/09 00:48:46;;;;;;;1.90;1.40;;;;;;;19.30;48.25;98619.72;5077047;28;20568;-71
2022/08/09 00:51:16;;;;;;;3.90;1.40;;;;;;;19.18;48.52;98619.06;5077037;28;20754;-71
2022/08/09 00:53:45;;;;;;;1.70;1.40;;;;;;;19.14;48.95;98623.34;5077306;28;20207;-70
2022/08/09 00:56:12;;;;;;;2.13;1.30;;;;;;;19.11;48.97;98617.69;5077249;28;20215;-71
2022/08/09 00:58:39;;;;;;;2.70;1.50;;;;;;;18.92;49.66;98624.56;5077152;28;20208;-70
2022/08/09 01:01:17;;;;;;;2.30;1.73;;;;;;;19.00;48.96;98624.88;5077146;28;20270;-70
2022/08/09 01:04:08;;;;;;;3.17;1.40;;;;;;;18.92;49.67;98621.88;5076760;28;20208;-71
2022/08/09 01:07:01;;;;;;;1.97;1.23;;;;;;;18.85;49.90;98618.56;5076535;28;20662;-71
2022/08/09 01:09:40;;;;;;;1.60;1.50;;;;;;;18.77;50.51;98621.75;5075582;28;20695;-71
2022/08/09 01:12:18;;;;;;;2.87;1.30;;;;;;;18.54;51.03;98622.06;5059392;28;20283;-71
2022/08/09 01:15:03;;;;;;;2.57;1.40;;;;;;;18.51;51.32;98628.78;5076799;28;20235;-70
2022/08/09 01:17:38;;;;;;;4.33;1.43;;;;;;;18.36;51.47;98625.97;5077376;28;20184;-70
2022/08/09 01:20:07;;;;;;;2.80;1.40;;;;;;;18.41;50.89;98627.91;5077215;28;20310;-70
2022/08/09 01:23:13;;;;;;;1.87;1.20;;;;;;;18.33;51.87;98631.84;5076736;28;20208;-71
2022/08/09 01:26:00;;;;;;;4.10;1.13;;;;;;;18.16;51.92;98631.13;5064210;28;20330;-71
2022/08/09 01:28:28;;;;;;;2.80;1.20;;;;;;;18.19;52.31;98629.78;5076617;28;20199;-70
2022/08/09 01:30:59;;;;;;;3.77;1.50;;;;;;;18.09;52.99;98635.06;5076564;28;20211;-71
2022/08/09 01:33:29;;;;;;;4.07;1.50;;;;;;;18.16;52.30;98633.81;5075071;28;20267;-71
2022/08/09 01:36:02;;;;;;;3.27;1.50;;;;;;;18.10;51.84;98640.19;5077013;28;20291;-71
2022/08/09 01:38:34;;;;;;;3.13;1.40;;;;;;;18.17;51.88;98643.50;5076625;28;20584;-70
2022/08/09 01:41:13;;;;;;;3.77;1.43;;;;;;;18.18;52.01;98645.13;5076378;28;20192;-70
2022/08/09 01:43:42;;;;;;;2.53;1.37;;;;;;;18.18;52.10;98655.09;5076003;28;20751;-70
2022/08/09 01:46:11;;;;;;;3.20;1.50;;;;;;;18.05;52.41;98655.47;5076833;28;20287;-70
2022/08/09 01:48:39;;;;;;;2.47;1.37;;;;;;;18.01;52.62;98648.97;5076164;28;20205;-71
2022/08/09 01:51:08;;;;;;;1.93;1.10;;;;;;;17.94;52.76;98646.47;5076166;28;20295;-70
2022/08/09 01:53:36;;;;;;;1.73;1.43;;;;;;;17.95;52.60;98645.41;5076147;28;20243;-70
2022/08/09 01:56:04;;;;;;;1.47;1.33;;;;;;;18.05;52.57;98650.09;5075795;28;20635;-71
2022/08/09 01:58:33;;;;;;;1.50;1.40;;;;;;;18.07;52.90;98651.47;5074834;28;20200;-70
2022/08/09 02:01:01;;;;;;;2.07;1.50;;;;;;;17.96;53.28;98646.22;5076000;28;20300;-71
2022/08/09 02:03:31;;;;;;;2.13;1.50;;;;;;;18.01;53.29;98657.84;5075915;28;20225;-71
2022/08/09 02:05:59;;;;;;;2.67;1.43;;;;;;;17.97;52.95;98650.53;5075899;28;20299;-70
2022/08/09 02:08:29;;;;;;;3.03;1.50;;;;;;;17.95;53.30;98649.97;5076356;28;20215;-70
2022/08/09 02:10:57;;;;;;;3.53;1.37;;;;;;;17.90;53.85;98652.59;5075862;28;20207;-71
2022/08/09 02:13:25;;;;;;;2.70;1.60;;;;;;;17.80;53.93;98652.47;5075302;28;20664;-71
2022/08/09 02:15:54;;;;;;;1.30;1.20;;;;;;;17.90;53.36;98650.72;5075795;28;20205;-70
2022/08/09 02:18:28;;;;;;;1.37;1.27;;;;;;;17.90;53.44;98656.09;5075739;28;20291;-71
2022/08/09 02:21:02;;;;;;;1.87;1.40;;;;;;;17.87;53.61;98664.66;5075729;28;20189;-71
2022/08/09 02:23:33;;;;;;;1.50;1.40;;;;;;;17.61;54.37;98662.75;5075573;28;20195;-71
2022/08/09 02:26:02;;;;;;;3.07;1.60;;;;;;;17.66;54.56;98661.97;5075314;28;20655;-70
2022/08/09 02:28:33;;;;;;;2.53;1.40;;;;;;;17.59;54.17;98666.72;5074225;28;20231;-70
2022/08/09 02:31:07;;;;;;;3.50;1.43;;;;;;;17.48;54.68;98655.03;5075516;28;20193;-71
2022/08/09 02:33:38;;;;;;;2.13;1.30;;;;;;;17.57;54.40;98658.09;5075170;28;20666;-70
2022/08/09 02:36:08;;;;;;;6.13;1.30;;;;;;;17.45;55.56;98668.97;5075391;28;20192;-71
2022/08/09 02:38:41;;;;;;;2.53;1.20;;;;;;;17.36;55.42;98667.72;5075286;28;20300;-70
2022/08/09 02:41:16;;;;;;;2.77;1.30;;;;;;;17.31;55.59;98664.97;5074955;28;20283;-70
2022/08/09 02:43:45;;;;;;;1.50;1.37;;;;;;;17.38;55.15;98668.28;5075666;28;20299;-70
2022/08/09 02:46:15;;;;;;;3.03;1.30;;;;;;;17.28;55.71;98670.03;5075144;28;20205;-70
2022/08/09 02:48:44;;;;;;;2.63;1.27;;;;;;;17.36;55.43;98667.72;5074668;28;20215;-70
2022/08/09 02:51:14;;;;;;;4.90;1.43;;;;;;;17.36;54.77;98659.66;5074990;28;20618;-70
2022/08/09 02:53:48;;;;;;;1.97;1.43;;;;;;;17.28;55.70;98657.38;5074733;28;20193;-70
2022/08/09 02:56:16;;;;;;;1.40;1.30;;;;;;;17.24;55.85;98664.31;5074562;28;20279;-71
2022/08/09 02:58:45;;;;;;;1.60;1.50;;;;;;;17.33;55.64;98660.16;5075280;28;20226;-71
2022/08/09 03:01:12;;;;;;;1.77;1.17;;;;;;;17.31;55.59;98659.59;5074862;28;20200;-70
2022/08/09 03:03:40;;;;;;;2.73;1.53;;;;;;;17.25;55.56;98665.13;5074269;28;20643;-70
2022/08/09 03:06:07;;;;;;;3.60;1.30;;;;;;;17.10;56.37;98662.22;5074746;28;20205;-70
2022/08/09 03:08:35;;;;;;;1.47;1.37;;;;;;;17.06;56.46;98656.50;5073183;28;20203;-70
2022/08/09 03:11:02;;;;;;;2.87;1.57;;;;;;;16.94;56.30;98657.66;5074623;28;20209;-70
2022/08/09 03:13:30;;;;;;;3.77;1.40;;;;;;;17.01;56.47;98659.13;5074147;28;20682;-71
2022/08/09 03:15:57;;;;;;;1.60;1.50;;;;;;;17.00;56.90;98656.69;5074472;28;20292;-71
2022/08/09 03:18:24;;;;;;;2.63;1.50;;;;;;;16.88;56.96;98659.44;5074350;28;20299;-70
2022/08/09 03:20:51;;;;;;;1.93;1.50;;;;;;;16.84;57.12;98655.66;5074214;28;20295;-71
2022/08/09 03:23:19;;;;;;;3.03;1.40;;;;;;;16.92;57.41;98663.28;5074107;28;20212;-70
2022/08/09 03:25:47;;;;;;;1.33;1.20;;;;;;;16.87;57.41;98657.81;5073076;28;20255;-70
2022/08/09 03:28:15;;;;;;;1.77;1.40;;;;;;;16.92;57.24;98663.28;5072844;28;20234;-71
2022/08/09 03:30:42;;;;;;;2.17;1.60;;;;;;;16.81;57.73;98677.63;5074000;28;20232;-70
2022/08/09 03:33:10;;;;;;;3.70;1.80;;;;;;;16.90;57.17;98661.91;5074046;28;20231;-70
2022/08/09 03:35:36;;;;;;;2.03;1.40;;;;;;;17.04;56.88;98664.03;5073863;28;20295;-70
2022/08/09 03:38:03;;;;;;;2.40;1.40;;;;;;;17.14;56.74;98663.38;5073966;28;20210;-71
2022/08/09 03:40:29;;;;;;;3.10;1.60;;;;;;;17.11;56.78;98661.16;5073889;28;20220;-70
2022/08/09 03:42:56;;;;;;;2.00;1.60;;;;;;;17.06;57.34;98666.47;5073538;28;20687;-70
2022/08/09 03:45:22;;;;;;;2.97;1.60;;;;;;;17.15;57.04;98675.75;5073788;28;20314;-70
2022/08/09 03:47:48;;;;;;;2.37;1.53;;;;;;;16.99;57.33;98681.91;5073885;28;20200;-70
2022/08/09 03:50:16;;;;;;;1.80;1.70;;;;;;;16.92;57.34;98676.72;5073716;28;20320;-70
2022/08/09 03:52:44;;;;;;;3.70;1.73;;;;;;;16.76;58.14;98682.91;5073869;28;20294;-71
2022/08/09 03:55:12;;;;;;;3.50;1.53;;;;;;;16.73;58.07;98679.91;5072333;28;20287;-70
2022/08/09 03:57:39;;;;;;;4.57;1.60;;;;;;;16.70;58.20;98675.78;5073748;28;20208;-70
2022/08/09 04:00:06;;;;;;;1.77;1.63;;;;;;;16.76;58.39;98679.38;5073699;28;20315;-70
2022/08/09 04:02:33;;;;;;;4.20;1.60;;;;;;;16.66;58.73;98677.38;5073305;28;20200;-70
2022/08/09 04:05:01;;;;;;;3.23;1.70;;;;;;;16.62;58.59;98678.91;5073523;28;20231;-71
2022/08/09 04:07:29;;;;;;;5.23;1.70;;;;;;;16.71;58.35;98676.63;5073427;28;20205;-71
2022/08/09 04:09:56;;;;;;;3.27;1.90;;;;;;;16.69;58.70;98681.44;5073381;28;20231;-70
2022/08/09 04:12:46;;;;;;;3.03;1.70;;;;;;;16.64;58.69;98684.81;5073426;28;20292;-71
2022/08/09 04:15:15;;;;;;;3.80;1.57;;;;;;;16.74;58.38;98679.63;5066981;28;20203;-70
2022/08/09 04:17:42;;;;;;;3.10;1.77;;;;;;;16.71;58.75;98684.69;5073139;28;20726;-71
2022/08/09 04:20:11;;;;;;;5.30;1.90;;;;;;;16.65;59.11;98694.50;5073211;28;20250;-70
2022/08/09 04:22:39;;;;;;;1.80;1.70;;;;;;;16.65;59.32;98691.81;5072454;28;20685;-70
2022/08/09 04:25:06;;;;;;;6.30;1.90;;;;;;;16.74;59.42;98693.06;5072787;28;20710;-70
2022/08/09 04:27:34;;;;;;;3.07;1.63;;;;;;;16.67;59.60;98697.78;5072994;28;20295;-70
2022/08/09 04:30:01;;;;;;;6.50;1.83;;;;;;;16.78;59.23;98699.56;5073147;28;20259;-70
2022/08/09 04:32:28;;;;;;;4.17;1.80;;;;;;;16.83;59.19;98696.97;5073143;28;20205;-71
2022/08/09 04:34:56;;;;;;;4.13;1.70;;;;;;;16.71;59.94;98698.94;5073241;28;20238;-71
2022/08/09 04:37:22;;;;;;;2.10;1.90;;;;;;;16.78;59.86;98707.63;5072878;28;20686;-70
2022/08/09 04:39:48;;;;;;;4.70;2.03;;;;;;;16.83;59.74;98713.09;5072899;28;20315;-70
2022/08/09 04:42:15;;;;;;;3.63;1.80;;;;;;;16.87;59.92;98710.75;5073173;28;20554;-70
2022/08/09 04:44:41;;;;;;;2.03;1.53;;;;;;;16.97;59.24;98716.28;5072799;28;20315;-71
2022/08/09 04:47:08;;;;;;;2.40;1.80;;;;;;;16.99;59.39;98724.91;5072508;28;20215;-70
2022/08/09 04:49:36;;;;;;;4.17;1.93;;;;;;;16.96;59.64;98726.19;5072621;28;20227;-71
2022/08/09 04:52:04;;;;;;;2.93;1.90;;;;;;;16.99;59.84;98733.78;5072600;28;20231;-70
2022/08/09 04:54:31;;;;;;;3.97;1.80;;;;;;;17.05;59.44;98735.50;5072732;28;20207;-70
2022/08/09 04:56:58;;;;;;;4.93;1.97;;;;;;;17.24;59.32;98736.88;5072647;28;20204;-70
2022/08/09 04:59:25;;;;;;;3.10;2.20;;;;;;;17.23;59.28;98729.88;5072718;28;20307;-70
2022/08/09 05:01:51;;;;;;;4.47;1.93;;;;;;;17.36;59.10;98734.09;5072633;28;20216;-70
2022/08/09 05:04:17;;;;;;;4.23;2.17;;;;;;;17.29;59.67;98734.25;5072344;28;20220;-70
2022/08/09 05:06:44;;;;;;;5.97;2.00;;;;;;;17.47;58.17;98739.41;5072372;28;20619;-70
2022/08/09 05:09:10;;;;;;;5.03;2.13;;;;;;;17.57;57.67;98736.91;5072576;28;20221;-70
2022/08/09 05:11:37;;;;;;;4.60;2.03;;;;;;;17.55;58.11;98733.63;5072538;28;20209;-70
2022/08/09 05:14:04;;;;;;;4.57;2.00;;;;;;;17.61;58.23;98740.72;5071849;28;20306;-70
2022/08/09 05:16:30;;;;;;;4.07;1.90;;;;;;;17.64;58.07;98737.50;5072565;28;20204;-70
2022/08/09 05:18:57;;;;;;;4.07;2.20;;;;;;;17.72;58.12;98733.59;5072231;28;20729;-70
2022/08/09 05:21:23;;;;;;;3.20;2.13;;;;;;;17.89;56.98;98737.88;5072151;28;20655;-70
2022/08/09 05:23:49;;;;;;;3.37;2.10;;;;;;;17.92;57.53;98741.94;5072107;28;20204;-70
2022/08/09 05:26:16;;;;;;;5.30;2.50;;;;;;;18.03;56.48;98739.13;5072661;28;20311;-70
2022/08/09 05:28:42;;;;;;;5.37;2.53;;;;;;;18.22;55.19;98739.63;5071910;28;20719;-70
2022/08/09 05:31:09;;;;;;;5.13;2.30;;;;;;;18.32;56.17;98745.16;5072364;28;20208;-70
2022/08/09 05:33:35;;;;;;;7.03;1.93;;;;;;;18.30;56.53;98748.09;5073159;28;20201;-70
2022/08/09 05:36:02;;;;;;;4.00;2.33;;;;;;;18.46;55.79;98749.91;5075999;28;20307;-70
2022/08/09 05:38:30;;;;;;;7.73;2.67;;;;;;;18.45;54.09;98750.97;5075917;28;20278;-70
2022/08/09 05:40:56;;;;;;;5.40;2.67;;;;;;;18.54;53.77;98749.47;5075597;28;20759;-70
2022/08/09 05:43:23;;;;;;;4.77;2.20;;;;;;;18.71;53.67;98747.50;5075686;28;20200;-70
2022/08/09 05:45:50;;;;;;;5.80;2.43;;;;;;;18.76;54.58;98749.41;5075493;28;20675;-70
2022/08/09 05:48:16;;;;;;;5.30;2.10;;;;;;;18.92;54.44;98753.91;5076003;28;20228;-70
2022/08/09 05:50:43;;;;;;;7.00;2.40;;;;;;;19.13;53.76;98750.28;5075661;28;20229;-70
2022/08/09 05:53:10;;;;;;;4.47;2.10;;;;;;;19.17;52.44;98751.41;5075274;28;20236;-70
2022/08/09 05:55:37;;;;;;;3.00;2.40;;;;;;;19.35;53.28;98757.28;5075737;28;20284;-70
2022/08/09 05:58:03;;;;;;;5.93;2.37;;;;;;;19.50;53.31;98762.78;5075324;28;20220;-70
2022/08/09 06:00:31;;;;;;;3.00;2.50;;;;;;;19.37;53.79;98760.50;5075486;28;20225;-70
2022/08/09 06:02:58;;;;;;;3.97;2.60;;;;;;;19.44;54.08;98766.50;5075709;28;20200;-70
2022/08/09 06:05:26;;;;;;;4.87;2.83;;;;;;;19.53;53.74;98767.66;5075575;28;20227;-70
2022/08/09 06:07:53;;;;;;;4.33;2.70;;;;;;;19.72;53.30;98781.56;5075534;28;20204;-70
2022/08/09 06:10:19;;;;;;;5.77;2.70;;;;;;;19.57;53.94;98772.53;5075122;28;20311;-70
2022/08/09 06:12:46;;;;;;;4.57;2.73;;;;;;;19.57;54.09;98777.94;5074806;28;20239;-71
2022/08/09 06:15:12;;;;;;;6.67;2.73;;;;;;;19.56;54.39;98785.22;5075261;28;20195;-70
2022/08/09 06:17:39;;;;;;;6.63;2.23;;;;;;;19.77;53.98;98782.38;5075397;28;20211;-70
2022/08/09 06:20:05;;;;;;;5.80;2.40;;;;;;;19.67;54.10;98788.78;5064089;28;20228;-71
2022/08/09 06:22:32;;;;;;;3.77;2.73;;;;;;;19.77;54.22;98778.06;5055056;28;20233;-70
2022/08/09 06:24:58;;;;;;;3.27;2.77;;;;;;;19.99;53.57;98789.53;5054985;28;20236;-71
2022/08/09 06:27:25;;;;;;;2.90;2.60;;;;;;;20.06;52.19;98784.72;5054963;28;20701;-71
2022/08/09 06:29:51;;;;;;;3.60;2.83;;;;;;;19.96;53.04;98785.47;5058373;28;20216;-71
2022/08/09 06:32:17;;;;;;;7.67;2.77;;;;;;;20.05;52.82;98786.63;5074852;28;20295;-71
2022/08/09 06:34:44;;;;;;;2.77;2.43;;;;;;;20.19;51.49;98781.56;5074832;28;20698;-71
2022/08/09 06:37:10;;;;;;;3.87;2.27;;;;;;;20.23;52.32;98785.38;5074786;28;20215;-71
2022/08/09 06:39:36;;;;;;;2.57;2.37;;;;;;;20.29;51.31;98790.53;5066206;28;20359;-70
2022/08/09 06:42:03;;;;;;;4.20;2.20;;;;;;;20.33;51.63;98793.50;5056876;28;20207;-71
2022/08/09 06:44:29;;;;;;;5.57;2.17;;;;;;;20.49;52.02;98784.41;5054023;28;20545;-71
2022/08/09 06:46:56;;;;;;;4.20;2.27;;;;;;;20.56;51.08;98782.25;5054621;28;20300;-70
2022/08/09 06:49:23;;;;;;;4.90;2.30;;;;;;;20.69;50.58;98787.16;5054338;28;20787;-70
2022/08/09 06:51:49;;;;;;;4.53;2.60;;;;;;;20.33;51.26;98786.25;5054965;28;20205;-71
2022/08/09 06:54:16;;;;;;;3.13;2.60;;;;;;;20.46;51.10;98793.03;5054332;28;20702;-71
2022/08/09 06:56:42;;;;;;;3.07;2.67;;;;;;;20.48;51.20;98782.78;5054503;28;20201;-71
2022/08/09 06:59:08;;;;;;;8.83;7.80;;;;;;;20.73;51.00;98790.97;5054265;28;20225;-70
2022/08/09 07:01:35;;;;;;;6.50;4.10;;;;;;;20.87;50.62;98790.19;5054363;28;20211;-70
2022/08/09 07:04:01;;;;;;;4.80;2.30;;;;;;;21.19;50.21;98795.41;5054256;28;20672;-71
2022/08/09 07:06:28;;;;;;;4.50;3.33;;;;;;;21.27;49.26;98794.88;5054303;28;20229;-70
2022/08/09 07:08:54;;;;;;;4.20;2.57;;;;;;;21.21;49.70;98802.19;5054139;28;20347;-70
2022/08/09 07:11:20;;;;;;;5.27;2.67;;;;;;;21.38;49.20;98807.34;5054160;28;20205;-70
2022/08/09 07:13:47;;;;;;;3.77;2.40;;;;;;;21.33;49.17;98805.44;5054074;28;20224;-70
2022/08/09 07:16:13;;;;;;;7.37;5.17;;;;;;;21.31;49.30;98806.78;5054073;28;20767;-71
2022/08/09 07:18:39;;;;;;;3.70;2.50;;;;;;;21.38;49.05;98813.56;5054276;28;20211;-71
2022/08/09 07:21:06;;;;;;;4.03;3.00;;;;;;;21.31;49.27;98809.50;5053645;28;20292;-71
2022/08/09 07:23:32;;;;;;;3.00;2.50;;;;;;;21.36;49.41;98817.63;5054106;28;20284;-71
2022/08/09 07:25:59;;;;;;;4.73;2.73;;;;;;;21.64;49.05;98814.38;5054144;28;20235;-70
2022/08/09 07:28:25;;;;;;;2.53;2.33;;;;;;;21.87;48.04;98820.06;5053934;28;20220;-71
2022/08/09 07:30:52;;;;;;;3.07;2.57;;;;;;;21.79;48.04;98814.41;5054278;28;20212;-71
2022/08/09 07:33:19;;;;;;;5.53;4.37;;;;;;;21.85;48.50;98818.72;5053426;28;20208;-71
2022/08/09 07:35:45;;;;;;;4.60;3.70;;;;;;;21.74;48.53;98822.50;5054422;28;20209;-70
2022/08/09 07:38:12;;;;;;;5.57;3.07;;;;;;;21.79;48.88;98814.41;5053725;28;20220;-71
2022/08/09 07:40:38;;;;;;;3.47;2.67;;;;;;;21.95;48.41;98829.53;5053569;28;20275;-70
2022/08/09 07:43:04;;;;;;;3.93;2.57;;;;;;;22.17;48.11;98816.50;5053827;28;20291;-70
2022/08/09 07:45:31;;;;;;;6.43;2.70;;;;;;;22.18;47.89;98821.63;5053841;28;20307;-71
2022/08/09 07:47:59;;;;;;;3.23;2.50;;;;;;;22.14;47.73;98817.84;5054022;28;20200;-70
2022/08/09 07:50:27;;;;;;;6.40;2.60;;;;;;;22.39;47.73;98816.97;5053950;28;20316;-70
2022/08/09 07:52:54;;;;;;;5.10;2.50;;;;;;;22.23;47.10;98818.09;5053414;28;20578;-71
2022/08/09 07:55:20;;;;;;;6.50;2.13;;;;;;;22.68;46.49;98821.50;5053725;28;20205;-70
2022/08/09 07:57:47;;;;;;;3.27;2.20;;;;;;;22.74;45.90;98814.16;5052622;28;20668;-71
2022/08/09 08:00:19;;;;;;;3.57;2.17;;;;;;;22.72;46.78;98811.72;5053186;28;20319;-70
2022/08/09 08:02:46;;;;;;;3.93;1.87;;;;;;;22.97;45.65;98813.50;5053702;28;20285;-70
2022/08/09 08:05:13;;;;;;;3.40;2.63;;;;;;;23.11;45.55;98820.69;5053386;28;20225;-71
2022/08/09 08:07:39;;;;;;;3.50;2.63;;;;;;;22.85;45.70;98813.00;5053326;28;20209;-70
2022/08/09 08:10:07;;;;;;;1.83;1.60;;;;;;;22.85;45.40;98818.44;5053376;28;20229;-70
2022/08/09 08:12:33;;;;;;;5.17;1.87;;;;;;;23.15;45.43;98824.47;5053158;28;20296;-70
2022/08/09 08:15:00;;;;;;;3.35;2.15;;;;;;;23.28;44.37;98823.06;5053020;28;20712;-70
2022/08/09 08:17:27;;;;;;;2.08;1.90;;;;;;;23.24;44.39;98827.47;5053917;28;20296;-71
2022/08/09 08:19:54;;;;;;;2.30;2.10;;;;;;;23.40;44.05;98827.06;5053317;28;20652;-71
2022/08/09 08:22:21;;;;;;;4.82;2.50;;;;;;;23.48;43.78;98817.50;5053793;28;20208;-70
2022/08/09 08:24:50;;;;;;;2.95;2.15;;;;;;;23.53;43.79;98814.75;5053202;28;20288;-71
2022/08/09 08:27:17;;;;;;;2.67;1.88;;;;;;;23.66;44.15;98814.09;5052886;28;20259;-70
2022/08/09 08:29:43;;;;;;;1.52;1.42;;;;;;;23.80;43.29;98820.47;5053193;28;20320;-70
2022/08/09 08:32:09;;;;;;;1.90;1.80;;;;;;;23.80;42.13;98821.31;5053125;28;20295;-70
2022/08/09 08:34:36;;;;;;;5.03;1.83;;;;;;;24.04;42.70;98824.91;5052683;28;20568;-71
2022/08/09 08:37:03;;;;;;;3.40;1.70;;;;;;;24.12;41.70;98818.84;5053010;28;20197;-70
2022/08/09 08:39:30;;;;;;;5.28;4.22;;;;;;;23.70;42.16;98821.38;5053035;28;20229;-70
2022/08/09 08:41:57;;;;;;;3.33;1.90;;;;;;;23.99;42.03;98818.69;5053178;28;20292;-70
2022/08/09 08:44:25;;;;;;;2.95;1.90;;;;;;;24.31;41.59;98822.44;5053084;28;20239;-70
2022/08/09 08:46:51;;;;;;;1.70;1.60;;;;;;;24.26;40.65;98816.25;5052982;28;20324;-71
2022/08/09 08:49:18;;;;;;;3.08;2.00;;;;;;;24.44;40.56;98821.75;5052509;28;20723;-70
2022/08/09 08:51:45;;;;;;;10.23;7.90;;;;;;;24.36;41.15;98822.38;5052731;28;20694;-70
2022/08/09 08:54:13;;;;;;;1.70;1.60;;;;;;;24.74;40.29;98829.53;5053232;28;20206;-69
2022/08/09 08:56:40;;;;;;;4.38;3.95;;;;;;;24.97;39.65;98819.75;5051511;28;20233;-70
2022/08/09 08:59:09;;;;;;;2.85;2.10;;;;;;;24.99;39.54;98822.97;5053298;28;20236;-70
2022/08/09 09:01:37;;;;;;;20.23;18.17;;;;;;;24.99;39.43;98814.81;5052892;28;20292;-70
2022/08/09 09:04:08;;;;;;;2.00;1.80;;;;;;;25.09;38.90;98828.25;5052929;28;20213;-71
2022/08/09 09:06:37;;;;;;;1.75;1.58;;;;;;;25.26;38.70;98825.84;5052842;28;20217;-70
2022/08/09 09:09:05;;;;;;;1.45;1.35;;;;;;;25.53;38.19;98828.72;5055399;28;20308;-70
2022/08/09 09:11:34;;;;;;;2.92;1.70;;;;;;;25.73;37.33;98831.13;5056619;28;20212;-71
2022/08/09 09:14:11;;;;;;;3.20;1.50;;;;;;;25.72;36.51;98818.59;5056269;28;20687;-71
2022/08/09 09:16:38;;;;;;;2.95;2.00;;;;;;;25.71;37.04;98831.41;5055627;28;20196;-71
2022/08/09 09:19:07;;;;;;;2.00;1.85;;;;;;;25.78;36.98;98823.66;5056711;28;20283;-71
2022/08/09 09:21:33;;;;;;;4.60;4.00;;;;;;;25.91;36.53;98819.38;5056613;28;20205;-71
2022/08/09 09:24:07;;;;;;;2.90;2.17;;;;;;;25.95;35.79;98818.50;5056585;28;20292;-71
2022/08/09 09:26:34;;;;;;;6.40;1.88;;;;;;;25.95;36.09;98813.03;5056075;28;20707;-71
2022/08/09 09:29:02;;;;;;;4.40;1.67;;;;;;;26.18;34.71;98813.97;5056172;28;20312;-71
2022/08/09 09:31:28;;;;;;;3.47;1.70;;;;;;;26.29;35.42;98818.97;5056107;28;20308;-71
2022/08/09 09:34:11;;;;;;;2.45;1.55;;;;;;;26.50;34.42;98811.19;5055995;28;20211;-71
2022/08/09 09:36:40;;;;;;;1.67;1.50;;;;;;;26.66;34.24;98804.31;5056246;28;20276;-70
2022/08/09 09:39:09;;;;;;;2.05;1.63;;;;;;;26.77;33.46;98797.53;5055642;28;20232;-71
2022/08/09 09:41:36;;;;;;;3.63;2.13;;;;;;;26.81;33.64;98807.53;5055881;28;20300;-71
2022/08/09 09:44:05;;;;;;;3.65;2.10;;;;;;;26.53;34.02;98805.09;5056043;28;20288;-71
2022/08/09 09:46:34;;;;;;;2.65;1.48;;;;;;;26.92;34.18;98803.47;5056006;28;20649;-70
2022/08/09 09:49:07;;;;;;;2.15;1.50;;;;;;;27.04;34.02;98797.47;5055929;28;20228;-71
2022/08/09 09:51:35;;;;;;;1.70;1.50;;;;;;;27.17;33.63;98799.34;5055996;28;20190;-71
2022/08/09 09:54:05;;;;;;;2.67;1.80;;;;;;;27.05;33.49;98790.91;5055673;28;20687;-70
2022/08/09 09:56:34;;;;;;;2.08;1.63;;;;;;;27.15;33.07;98788.75;5055647;28;20202;-71
2022/08/09 09:59:01;;;;;;;4.03;1.67;;;;;;;27.10;32.95;98783.41;5055786;28;20257;-71
2022/08/09 10:01:27;;;;;;;2.50;1.73;;;;;;;27.38;32.84;98786.88;5055861;28;20213;-71
2022/08/09 10:03:54;;;;;;;2.83;2.22;;;;;;;27.15;33.36;98785.22;5055830;28;20205;-71
2022/08/09 10:06:21;;;;;;;2.33;1.60;;;;;;;27.47;32.73;98787.75;5055522;28;20229;-71
2022/08/09 10:08:49;;;;;;;1.70;1.60;;;;;;;27.76;31.94;98793.56;5055559;28;20316;-70
2022/08/09 10:11:20;;;;;;;1.88;1.77;;;;;;;27.68;32.09;98779.84;5055562;28;20205;-71
2022/08/09 10:13:47;;;;;;;2.38;1.73;;;;;;;28.06;31.52;98783.78;5055039;28;20217;-70
2022/08/09 10:16:14;;;;;;;2.42;2.00;;;;;;;28.05;30.51;98787.66;5055588;28;20296;-71
2022/08/09 10:18:51;;;;;;;3.40;1.60;;;;;;;27.70;30.87;98780.34;5055046;28;20657;-71
2022/08/09 10:21:17;;;;;;;2.05;1.48;;;;;;;28.01;30.45;98775.72;5054575;28;20213;-70
2022/08/09 10:23:45;;;;;;;4.85;1.60;;;;;;;27.99;29.98;98770.56;5055161;28;20207;-70
2022/08/09 10:26:13;;;;;;;2.15;1.70;;;;;;;28.07;30.19;98780.75;5054816;28;20325;-70
2022/08/09 10:28:41;;;;;;;1.73;1.63;;;;;;;28.11;29.87;98779.00;5055180;28;20292;-69
2022/08/09 10:31:10;;;;;;;2.67;1.60;;;;;;;28.27;29.63;98780.22;5055181;28;20212;-70
2022/08/09 10:33:37;;;;;;;1.63;1.40;;;;;;;27.97;30.35;98774.72;5054859;28;20216;-70
2022/08/09 10:36:08;;;;;;;1.70;1.60;;;;;;;28.20;29.95;98770.81;5054969;28;20678;-70
2022/08/09 10:38:37;;;;;;;2.13;1.58;;;;;;;28.24;30.07;98764.41;5054677;28;20747;-70
2022/08/09 10:41:04;;;;;;;3.85;1.73;;;;;;;28.49;29.33;98771.13;5054618;28;20209;-70
2022/08/09 10:43:31;;;;;;;1.92;1.48;;;;;;;28.40;28.96;98768.34;5054580;28;20205;-69
2022/08/09 10:46:02;;;;;;;2.65;1.73;;;;;;;28.15;29.38;98768.22;5054686;28;20278;-70
2022/08/09 10:48:41;;;;;;;3.40;2.30;;;;;;;28.33;29.58;98762.53;5054888;28;20200;-70
2022/08/09 10:51:13;;;;;;;2.20;1.63;;;;;;;28.16;28.13;98767.91;5054967;28;20208;-70
2022/08/09 10:54:04;;;;;;;1.95;1.50;;;;;;;28.14;28.94;98761.97;5054363;28;20254;-70
2022/08/09 10:56:33;;;;;;;2.45;1.50;;;;;;;28.07;28.87;98767.06;5054700;28;20272;-70
2022/08/09 10:59:02;;;;;;;2.22;1.90;;;;;;;28.09;28.85;98767.59;5054139;28;20227;-70
2022/08/09 11:01:31;;;;;;;3.53;1.88;;;;;;;28.15;28.51;98762.75;5054064;28;20205;-70
2022/08/09 11:04:11;;;;;;;2.53;2.17;;;;;;;28.33;27.77;98759.78;5054288;28;20646;-70
2022/08/09 11:06:42;;;;;;;3.72;2.83;;;;;;;28.25;27.72;98768.75;5054157;28;20315;-70
2022/08/09 11:09:10;;;;;;;3.22;2.67;;;;;;;28.36;27.39;98778.31;5054367;28;20264;-70
2022/08/09 11:12:09;;;;;;;1.73;1.63;;;;;;;28.35;27.91;98773.94;5054214;28;20212;-70
2022/08/09 11:14:47;;;;;;;4.60;4.25;;;;;;;28.07;27.97;98767.06;5052723;28;20213;-70
2022/08/09 11:17:13;;;;;;;5.20;2.00;;;;;;;28.26;27.51;98766.84;5053895;28;20633;-70
2022/08/09 11:19:58;;;;;;;3.00;1.80;;;;;;;28.65;27.31;98756.69;5054130;28;20225;-70
2022/08/09 11:22:40;;;;;;;2.80;2.60;;;;;;;28.76;26.98;98765.41;5054383;28;20201;-71
2022/08/09 11:25:21;;;;;;;1.63;1.50;;;;;;;28.95;26.77;98757.69;5054385;28;20296;-70
2022/08/09 11:27:52;;;;;;;5.78;2.05;;;;;;;28.20;27.21;98757.16;5054233;28;20311;-70
2022/08/09 11:30:25;;;;;;;3.95;1.50;;;;;;;28.52;27.13;98754.88;5053608;28;20229;-70
2022/08/09 11:33:00;;;;;;;1.52;1.30;;;;;;;28.37;27.64;98751.75;5053224;28;20209;-69
2022/08/09 11:35:31;;;;;;;2.20;1.60;;;;;;;28.50;27.55;98757.13;5054146;28;20204;-69
2022/08/09 11:38:13;;;;;;;2.70;1.75;;;;;;;28.57;27.21;98749.25;5054193;28;20221;-70
2022/08/09 11:40:40;;;;;;;4.18;1.92;;;;;;;28.48;27.14;98764.84;5053576;28;20801;-69
2022/08/09 11:43:06;;;;;;;3.60;1.90;;;;;;;28.25;27.32;98748.81;5053440;28;20208;-69